Time;durP1;ratioP1;P1;durP2;ratioP2;P2;SDS_P1;SDS_P2;PMS_P1;PMS_P2;Temp;Humidity;BMP_temperature;BMP_pressure;BME280_temperature;BME280_humidity;BME280_pressure;Samples;Min_cycle;Max_cycle;Signal;HPM_P1;HPM_P2
2022/04/08 00:00:18;;;;;;;0.35;0.30;;;17.10;59.30;;;;;;4981678;28;20046;-13
2022/04/08 00:02:44;;;;;;;0.30;0.30;;;17.10;59.40;;;;;;4976423;28;20039;-13
2022/04/08 00:05:09;;;;;;;0.57;0.30;;;17.10;59.40;;;;;;4977919;28;20046;-14
2022/04/08 00:07:35;;;;;;;0.77;0.30;;;17.10;59.30;;;;;;4980625;28;20065;-14
2022/04/08 00:10:01;;;;;;;0.60;0.50;;;17.10;59.30;;;;;;4986208;28;20597;-16
2022/04/08 00:12:27;;;;;;;0.20;0.20;;;17.10;59.40;;;;;;4985266;28;20511;-13
2022/04/08 00:14:52;;;;;;;0.45;0.30;;;17.10;59.50;;;;;;4983539;28;20039;-13
2022/04/08 00:17:18;;;;;;;0.40;0.30;;;17.00;59.40;;;;;;4984598;28;20039;-12
2022/04/08 00:19:43;;;;;;;0.40;0.40;;;17.10;59.50;;;;;;4985031;28;20074;-13
2022/04/08 00:22:10;;;;;;;0.63;0.20;;;17.00;59.50;;;;;;4976065;28;20051;-14
2022/04/08 00:24:35;;;;;;;0.45;0.40;;;17.00;59.50;;;;;;4985000;28;20052;-14
2022/04/08 00:27:01;;;;;;;0.20;0.20;;;17.00;59.50;;;;;;4995682;28;20121;-12
2022/04/08 00:29:27;;;;;;;1.00;0.40;;;17.00;59.60;;;;;;4994769;28;20058;-13
2022/04/08 00:31:57;;;;;;;0.22;0.22;;;17.00;59.70;;;;;;4995642;28;20428;-16
2022/04/08 00:34:24;;;;;;;0.30;0.30;;;17.00;59.70;;;;;;4985045;28;20123;-13
2022/04/08 00:36:50;;;;;;;0.43;0.20;;;17.00;59.70;;;;;;5006954;28;20089;-13
2022/04/08 00:39:16;;;;;;;0.22;0.22;;;17.00;59.70;;;;;;4998102;28;20046;-12
2022/04/08 00:41:41;;;;;;;0.70;0.22;;;17.00;59.80;;;;;;4999469;28;20050;-16
2022/04/08 00:44:07;;;;;;;0.50;0.40;;;17.00;59.70;;;;;;4990394;28;20051;-14
2022/04/08 00:46:33;;;;;;;0.95;0.30;;;17.00;59.70;;;;;;4979825;28;20051;-14
2022/04/08 00:48:58;;;;;;;0.35;0.30;;;17.00;59.70;;;;;;4979792;28;20042;-12
2022/04/08 00:51:24;;;;;;;0.43;0.40;;;17.10;59.50;;;;;;4979298;28;20061;-12
2022/04/08 00:53:50;;;;;;;0.22;0.20;;;17.00;59.60;;;;;;4978310;28;20074;-13
2022/04/08 00:56:15;;;;;;;0.30;0.30;;;17.00;59.80;;;;;;4977858;28;20070;-12
2022/04/08 00:58:41;;;;;;;0.38;0.30;;;17.00;59.80;;;;;;4979792;28;20055;-14
2022/04/08 01:01:06;;;;;;;0.30;0.30;;;16.90;59.70;;;;;;4988134;28;20046;-13
2022/04/08 01:03:32;;;;;;;0.50;0.40;;;17.00;59.80;;;;;;4989118;28;20045;-13
2022/04/08 01:05:58;;;;;;;0.73;0.43;;;17.00;59.90;;;;;;4989761;28;20042;-16
2022/04/08 01:08:23;;;;;;;0.40;0.22;;;17.00;60.00;;;;;;4984757;28;20050;-13
2022/04/08 01:10:50;;;;;;;0.30;0.30;;;16.90;59.80;;;;;;4986865;28;20427;-13
2022/04/08 01:13:15;;;;;;;0.60;0.30;;;17.00;59.90;;;;;;4986997;28;20035;-14
2022/04/08 01:15:41;;;;;;;0.30;0.30;;;16.90;59.90;;;;;;4990126;28;20054;-13
2022/04/08 01:18:07;;;;;;;0.52;0.50;;;16.90;59.90;;;;;;4986289;28;20408;-14
2022/04/08 01:20:33;;;;;;;0.17;0.17;;;16.90;59.90;;;;;;4988757;28;20038;-12
2022/04/08 01:22:59;;;;;;;0.55;0.55;;;16.90;60.00;;;;;;4987762;28;20459;-13
2022/04/08 01:25:24;;;;;;;0.38;0.25;;;16.90;60.00;;;;;;4985803;28;20039;-12
2022/04/08 01:27:50;;;;;;;0.40;0.25;;;16.90;60.00;;;;;;4988087;28;20128;-12
2022/04/08 01:30:16;;;;;;;0.30;0.20;;;17.00;60.00;;;;;;4986525;28;20042;-12
2022/04/08 01:32:42;;;;;;;0.45;0.40;;;17.00;59.90;;;;;;4988505;28;20049;-14
2022/04/08 01:35:08;;;;;;;0.77;0.35;;;16.90;60.10;;;;;;4987947;28;20054;-14
2022/04/08 01:37:33;;;;;;;0.43;0.32;;;16.90;60.20;;;;;;4986137;28;20046;-12
2022/04/08 01:39:59;;;;;;;0.60;0.40;;;16.90;60.10;;;;;;4989889;28;20077;-16
2022/04/08 01:42:25;;;;;;;0.32;0.30;;;16.90;59.90;;;;;;4987696;28;20515;-12
2022/04/08 01:44:52;;;;;;;0.22;0.20;;;16.90;59.90;;;;;;4984115;28;20042;-14
2022/04/08 01:47:17;;;;;;;0.47;0.30;;;16.90;60.00;;;;;;4987145;28;20026;-12
2022/04/08 01:49:43;;;;;;;0.57;0.40;;;16.90;60.00;;;;;;4987575;28;20042;-13
2022/04/08 01:52:09;;;;;;;0.60;0.32;;;16.90;60.00;;;;;;4988085;28;20085;-15
2022/04/08 01:54:34;;;;;;;0.40;0.32;;;16.90;60.00;;;;;;4988118;28;20043;-13
2022/04/08 01:57:00;;;;;;;1.45;0.50;;;16.90;60.10;;;;;;4987036;28;20111;-13
2022/04/08 01:59:25;;;;;;;0.30;0.30;;;16.90;60.10;;;;;;4987384;28;20042;-14
2022/04/08 02:01:51;;;;;;;0.50;0.38;;;16.90;59.90;;;;;;4985633;28;20411;-14
2022/04/08 02:04:17;;;;;;;0.55;0.30;;;16.90;60.00;;;;;;4986446;28;20039;-13
2022/04/08 02:06:43;;;;;;;0.50;0.30;;;16.90;60.00;;;;;;4986615;28;20050;-13
2022/04/08 02:09:09;;;;;;;0.40;0.40;;;16.90;60.00;;;;;;4988354;28;20042;-13
2022/04/08 02:11:35;;;;;;;0.70;0.40;;;16.90;60.10;;;;;;4991587;28;20046;-13
2022/04/08 02:14:01;;;;;;;0.60;0.50;;;16.90;60.10;;;;;;4997251;28;20046;-13
2022/04/08 02:16:27;;;;;;;0.28;0.20;;;16.90;60.10;;;;;;4996987;28;20068;-12
2022/04/08 02:18:53;;;;;;;0.63;0.32;;;16.90;60.20;;;;;;4996326;28;20062;-13
2022/04/08 02:21:19;;;;;;;0.50;0.40;;;16.90;60.20;;;;;;4996057;28;20061;-12
2022/04/08 02:23:49;;;;;;;0.50;0.35;;;16.90;60.20;;;;;;4997166;28;20046;-13
2022/04/08 02:26:16;;;;;;;0.60;0.45;;;16.90;60.00;;;;;;4994986;28;20070;-13
2022/04/08 02:28:42;;;;;;;0.30;0.30;;;16.80;60.20;;;;;;4995986;28;20049;-12
2022/04/08 02:31:08;;;;;;;0.70;0.35;;;16.80;60.10;;;;;;4996094;28;20133;-13
2022/04/08 02:33:33;;;;;;;0.38;0.32;;;16.80;60.20;;;;;;4995973;28;20082;-13
2022/04/08 02:35:59;;;;;;;0.30;0.30;;;16.80;60.10;;;;;;4997285;28;20043;-12
2022/04/08 02:38:24;;;;;;;0.73;0.40;;;16.90;60.20;;;;;;4995801;28;20053;-13
2022/04/08 02:40:50;;;;;;;0.30;0.20;;;16.90;60.00;;;;;;4997307;28;20534;-12
2022/04/08 02:43:15;;;;;;;0.40;0.35;;;16.80;60.10;;;;;;4996236;28;20133;-13
2022/04/08 02:45:41;;;;;;;0.65;0.45;;;16.90;60.00;;;;;;4997097;28;20484;-13
2022/04/08 02:48:07;;;;;;;0.75;0.35;;;16.80;60.30;;;;;;4995705;28;20047;-12
2022/04/08 02:50:32;;;;;;;0.38;0.30;;;16.90;60.20;;;;;;4995496;28;20054;-13
2022/04/08 02:52:58;;;;;;;0.45;0.28;;;16.80;60.20;;;;;;4996557;28;20049;-12
2022/04/08 02:55:24;;;;;;;0.47;0.40;;;16.80;60.40;;;;;;4995266;28;20045;-13
2022/04/08 02:57:50;;;;;;;0.43;0.40;;;16.80;60.20;;;;;;4996652;28;20507;-13
2022/04/08 03:00:17;;;;;;;0.32;0.20;;;16.80;60.10;;;;;;4996353;28;20042;-13
2022/04/08 03:02:43;;;;;;;0.60;0.40;;;16.80;60.20;;;;;;4996548;28;20045;-14
2022/04/08 03:05:09;;;;;;;0.70;0.47;;;16.80;60.30;;;;;;4995925;28;20474;-13
2022/04/08 03:07:35;;;;;;;0.52;0.52;;;16.80;60.10;;;;;;4993968;28;20050;-12
2022/04/08 03:10:03;;;;;;;0.50;0.40;;;16.80;60.10;;;;;;4996047;28;20098;-13
2022/04/08 03:12:29;;;;;;;0.45;0.40;;;16.80;60.10;;;;;;4993990;28;20073;-13
2022/04/08 03:14:54;;;;;;;0.43;0.38;;;16.80;60.20;;;;;;4992986;28;20129;-13
2022/04/08 03:17:20;;;;;;;0.52;0.30;;;16.80;60.40;;;;;;4995346;28;20403;-12
2022/04/08 03:19:45;;;;;;;0.50;0.50;;;16.80;60.30;;;;;;4996534;28;20038;-12
2022/04/08 03:22:11;;;;;;;0.55;0.50;;;16.80;60.30;;;;;;4995610;28;20050;-13
2022/04/08 03:24:37;;;;;;;0.47;0.40;;;16.80;60.30;;;;;;4976283;28;20053;-12
2022/04/08 03:27:03;;;;;;;0.40;0.38;;;16.80;60.40;;;;;;4976964;28;20047;-14
2022/04/08 03:29:28;;;;;;;0.13;0.13;;;16.80;60.30;;;;;;4974569;28;20066;-12
2022/04/08 03:31:54;;;;;;;0.52;0.40;;;16.80;60.40;;;;;;4976955;28;20085;-12
2022/04/08 03:34:19;;;;;;;0.32;0.32;;;16.80;60.30;;;;;;4976178;28;20039;-13
2022/04/08 03:36:47;;;;;;;0.50;0.40;;;16.70;60.40;;;;;;4983371;28;20053;-13
2022/04/08 03:39:13;;;;;;;0.30;0.30;;;16.70;60.50;;;;;;4996208;28;20042;-12
2022/04/08 03:41:39;;;;;;;0.50;0.50;;;16.70;60.40;;;;;;4994895;28;20060;-13
2022/04/08 03:44:05;;;;;;;0.82;0.40;;;16.80;60.50;;;;;;4995779;28;20503;-13
2022/04/08 03:46:31;;;;;;;0.45;0.40;;;16.80;60.30;;;;;;4988785;28;20426;-13
2022/04/08 03:48:56;;;;;;;0.50;0.30;;;16.80;60.40;;;;;;4976793;28;20420;-12
2022/04/08 03:51:22;;;;;;;0.20;0.20;;;16.70;60.30;;;;;;4976144;28;20058;-13
2022/04/08 03:53:47;;;;;;;0.60;0.40;;;16.80;60.50;;;;;;4976541;28;20381;-14
2022/04/08 03:56:13;;;;;;;1.77;0.60;;;16.80;60.50;;;;;;4976910;28;20054;-13
2022/04/08 03:58:39;;;;;;;0.50;0.30;;;16.80;60.50;;;;;;4975804;28;20046;-13
2022/04/08 04:01:04;;;;;;;0.40;0.40;;;16.70;60.30;;;;;;4976592;28;20039;-12
2022/04/08 04:03:30;;;;;;;0.20;0.20;;;16.70;60.50;;;;;;4975852;28;20042;-12
2022/04/08 04:05:55;;;;;;;0.30;0.30;;;16.80;60.50;;;;;;4986193;28;20042;-12
2022/04/08 04:08:21;;;;;;;0.50;0.30;;;16.80;60.30;;;;;;4996825;28;20566;-13
2022/04/08 04:10:47;;;;;;;0.55;0.47;;;16.80;60.50;;;;;;4996685;28;20046;-13
2022/04/08 04:13:13;;;;;;;0.52;0.43;;;16.70;60.40;;;;;;4995316;28;20054;-12
2022/04/08 04:15:38;;;;;;;0.30;0.30;;;16.80;60.50;;;;;;4979847;28;20059;-13
2022/04/08 04:18:04;;;;;;;0.90;0.20;;;16.80;60.30;;;;;;4980798;28;20039;-13
2022/04/08 04:20:30;;;;;;;0.50;0.30;;;16.70;60.50;;;;;;4979752;28;20455;-14
2022/04/08 04:22:56;;;;;;;0.30;0.30;;;16.80;60.50;;;;;;4984558;28;20530;-14
2022/04/08 04:25:21;;;;;;;0.30;0.30;;;16.70;60.50;;;;;;4997959;28;20419;-14
2022/04/08 04:27:47;;;;;;;0.30;0.20;;;16.70;60.60;;;;;;4999294;28;20050;-12
2022/04/08 04:30:12;;;;;;;0.20;0.20;;;16.70;60.60;;;;;;4987893;28;20049;-13
2022/04/08 04:32:38;;;;;;;0.20;0.15;;;16.70;60.50;;;;;;4640296;28;10000808;-14
2022/04/08 04:35:06;;;;;;;0.32;0.20;;;16.70;60.30;;;;;;4998518;28;20081;-13
2022/04/08 04:37:35;;;;;;;0.60;0.20;;;16.70;60.70;;;;;;5005276;28;20392;-13
2022/04/08 04:40:01;;;;;;;0.30;0.20;;;16.70;60.60;;;;;;4992318;28;20057;-14
2022/04/08 04:42:28;;;;;;;0.82;0.63;;;16.70;60.70;;;;;;4987287;28;20046;-13
2022/04/08 04:44:54;;;;;;;0.70;0.35;;;16.70;60.70;;;;;;4985640;28;20459;-12
2022/04/08 04:47:20;;;;;;;0.25;0.20;;;16.70;60.80;;;;;;4989279;28;20038;-12
2022/04/08 04:49:46;;;;;;;0.20;0.20;;;16.70;60.60;;;;;;4988646;28;20047;-13
2022/04/08 04:52:11;;;;;;;0.40;0.30;;;16.70;60.60;;;;;;4995246;28;20046;-13
2022/04/08 04:54:37;;;;;;;0.30;0.28;;;16.70;60.70;;;;;;4994244;28;20479;-13
2022/04/08 04:57:03;;;;;;;0.40;0.30;;;16.70;60.90;;;;;;5006836;28;20567;-13
2022/04/08 04:59:29;;;;;;;1.13;0.30;;;16.70;60.50;;;;;;4984678;28;20110;-14
2022/04/08 05:01:55;;;;;;;0.25;0.25;;;16.70;60.60;;;;;;4985930;28;20641;-13
2022/04/08 05:04:20;;;;;;;0.85;0.10;;;16.60;61.10;;;;;;4989761;28;20042;-13
2022/04/08 05:06:46;;;;;;;0.43;0.30;;;16.60;61.20;;;;;;5002515;28;20128;-13
2022/04/08 05:09:11;;;;;;;0.40;0.30;;;16.60;61.20;;;;;;5002467;28;20088;-13
2022/04/08 05:11:37;;;;;;;0.63;0.30;;;16.60;61.30;;;;;;4992844;28;20053;-13
2022/04/08 05:14:03;;;;;;;0.30;0.30;;;16.50;61.30;;;;;;4999613;28;20069;-13
2022/04/08 05:16:28;;;;;;;0.50;0.30;;;16.60;61.30;;;;;;5005268;28;20057;-13
2022/04/08 05:18:54;;;;;;;0.38;0.30;;;16.60;61.30;;;;;;4993486;28;20046;-12
2022/04/08 05:21:20;;;;;;;0.40;0.28;;;16.60;61.20;;;;;;4994928;28;20118;-13
2022/04/08 05:23:45;;;;;;;0.30;0.22;;;16.60;61.00;;;;;;4993592;28;20061;-13
2022/04/08 05:26:11;;;;;;;0.25;0.20;;;16.60;60.90;;;;;;4994064;28;20133;-13
2022/04/08 05:28:37;;;;;;;0.20;0.20;;;16.60;61.20;;;;;;5005783;28;20057;-13
2022/04/08 05:31:02;;;;;;;0.13;0.10;;;16.60;61.00;;;;;;4999259;28;20042;-13
2022/04/08 05:33:28;;;;;;;0.32;0.20;;;16.60;61.00;;;;;;4990890;28;20074;-12
2022/04/08 05:35:53;;;;;;;0.40;0.40;;;16.60;61.10;;;;;;4991161;28;20142;-12
2022/04/08 05:38:19;;;;;;;0.20;0.10;;;16.60;61.00;;;;;;4991996;28;20081;-13
2022/04/08 05:40:45;;;;;;;0.30;0.20;;;16.60;60.90;;;;;;4996528;28;20042;-12
2022/04/08 05:43:10;;;;;;;0.35;0.35;;;16.60;61.00;;;;;;5001783;28;20046;-13
2022/04/08 05:45:36;;;;;;;0.20;0.20;;;16.60;61.00;;;;;;4992652;28;20077;-13
2022/04/08 05:48:03;;;;;;;0.20;0.20;;;16.60;60.80;;;;;;4992688;28;20078;-13
2022/04/08 05:50:28;;;;;;;0.32;0.22;;;16.70;60.70;;;;;;4993542;28;20169;-14
2022/04/08 05:52:54;;;;;;;1.85;0.30;;;16.70;60.80;;;;;;5002108;28;20145;-12
2022/04/08 05:55:20;;;;;;;0.10;0.10;;;16.70;60.60;;;;;;5013423;28;20053;-13
2022/04/08 05:57:47;;;;;;;0.20;0.20;;;16.70;60.60;;;;;;4997257;28;20084;-13
2022/04/08 06:00:13;;;;;;;0.50;0.30;;;16.60;60.70;;;;;;5004218;28;20400;-13
2022/04/08 06:02:39;;;;;;;0.40;0.40;;;16.70;60.90;;;;;;4983267;28;20523;-12
2022/04/08 06:05:06;;;;;;;0.30;0.30;;;16.70;60.80;;;;;;4993833;28;20116;-13
2022/04/08 06:07:31;;;;;;;0.50;0.25;;;16.60;60.80;;;;;;4983798;28;20145;-13
2022/04/08 06:09:59;;;;;;;0.38;0.20;;;16.60;60.90;;;;;;5001368;28;20111;-12
2022/04/08 06:12:25;;;;;;;0.50;0.20;;;16.70;60.90;;;;;;5003120;28;20050;-13
2022/04/08 06:14:51;;;;;;;0.60;0.20;;;16.70;61.00;;;;;;4995379;28;20044;-14
2022/04/08 06:17:16;;;;;;;0.20;0.20;;;16.70;60.90;;;;;;5003746;28;20126;-13
2022/04/08 06:19:46;;;;;;;1.45;0.20;;;16.70;60.90;;;;;;4997786;28;20042;-13
2022/04/08 06:22:12;;;;;;;1.95;0.45;;;16.70;60.90;;;;;;4997039;28;20058;-13
2022/04/08 06:24:39;;;;;;;0.40;0.20;;;16.70;61.30;;;;;;4991202;28;20081;-12
2022/04/08 06:27:05;;;;;;;0.40;0.30;;;16.70;61.20;;;;;;4990759;28;20049;-13
2022/04/08 06:29:30;;;;;;;1.05;0.25;;;16.70;61.20;;;;;;5000037;28;20054;-14
2022/04/08 06:31:56;;;;;;;0.20;0.20;;;16.70;61.30;;;;;;4985223;28;20058;-13
2022/04/08 06:34:21;;;;;;;0.10;0.10;;;16.70;61.00;;;;;;4994658;28;20868;-13
2022/04/08 06:36:47;;;;;;;0.68;0.25;;;16.70;61.00;;;;;;5001658;28;20125;-13
2022/04/08 06:39:13;;;;;;;1.35;0.20;;;16.70;61.20;;;;;;4993299;28;20061;-13
2022/04/08 06:41:38;;;;;;;0.28;0.20;;;16.70;61.20;;;;;;4980861;28;20061;-15
2022/04/08 06:44:04;;;;;;;0.88;0.20;;;16.70;61.50;;;;;;4977441;28;20046;-16
2022/04/08 06:46:30;;;;;;;0.70;0.30;;;16.70;61.30;;;;;;4977159;28;20081;-15
2022/04/08 06:48:56;;;;;;;0.82;0.40;;;16.70;61.30;;;;;;4979056;28;20089;-16
2022/04/08 06:51:22;;;;;;;1.55;0.20;;;16.70;61.50;;;;;;4980237;28;20124;-15
2022/04/08 06:53:47;;;;;;;0.20;0.20;;;16.70;61.50;;;;;;4979041;28;20054;-16
2022/04/08 06:56:13;;;;;;;0.30;0.20;;;16.70;61.30;;;;;;4980669;28;20049;-15
2022/04/08 06:58:39;;;;;;;0.40;0.30;;;16.70;61.20;;;;;;4980279;28;20058;-16
2022/04/08 07:01:06;;;;;;;0.10;0.10;;;16.70;61.20;;;;;;4977978;28;20113;-16
2022/04/08 07:03:32;;;;;;;1.33;0.35;;;16.70;61.10;;;;;;4979055;28;20085;-16
2022/04/08 07:05:57;;;;;;;0.30;0.20;;;16.80;61.00;;;;;;4978901;28;20046;-16
2022/04/08 07:08:23;;;;;;;0.25;0.20;;;16.80;60.70;;;;;;4980086;28;20049;-15
2022/04/08 07:10:48;;;;;;;0.60;0.20;;;16.80;60.70;;;;;;4978626;28;20058;-15
2022/04/08 07:13:14;;;;;;;0.10;0.10;;;16.80;60.60;;;;;;4979553;28;20463;-16
2022/04/08 07:15:40;;;;;;;0.57;0.10;;;16.90;60.40;;;;;;4976578;28;20065;-16
2022/04/08 07:18:05;;;;;;;0.32;0.32;;;16.90;60.20;;;;;;4980125;28;20050;-15
2022/04/08 07:20:31;;;;;;;0.30;0.20;;;17.00;60.10;;;;;;4978268;28;20503;-15
2022/04/08 07:23:01;;;;;;;0.30;0.17;;;17.00;60.10;;;;;;4977996;28;20472;-15
2022/04/08 07:25:27;;;;;;;1.48;0.30;;;17.00;60.10;;;;;;4978203;28;20051;-14
2022/04/08 07:27:55;;;;;;;0.30;0.20;;;17.00;60.10;;;;;;4978141;28;20460;-16
2022/04/08 07:30:21;;;;;;;0.38;0.20;;;17.00;60.10;;;;;;4979263;28;20058;-15
2022/04/08 07:32:50;;;;;;;0.10;0.10;;;17.00;60.10;;;;;;4978350;28;20108;-15
2022/04/08 07:35:16;;;;;;;0.20;0.20;;;16.90;60.30;;;;;;4976987;28;20106;-16
2022/04/08 07:37:41;;;;;;;0.30;0.10;;;17.00;60.30;;;;;;4978842;28;20112;-15
2022/04/08 07:40:08;;;;;;;0.30;0.10;;;16.90;61.10;;;;;;4980720;28;20046;-15
2022/04/08 07:42:34;;;;;;;0.20;0.10;;;16.90;60.30;;;;;;4977408;28;20046;-16
2022/04/08 07:44:59;;;;;;;0.10;0.10;;;17.00;60.30;;;;;;4978762;28;20061;-16
2022/04/08 07:47:28;;;;;;;0.20;0.20;;;16.90;60.30;;;;;;4980619;28;20213;-15
2022/04/08 07:50:00;;;;;;;0.20;0.10;;;16.90;60.30;;;;;;4992123;28;20062;-15
2022/04/08 07:52:26;;;;;;;0.10;0.10;;;16.90;60.20;;;;;;4995565;28;20039;-16
2022/04/08 07:54:53;;;;;;;0.35;0.20;;;17.00;60.20;;;;;;4993971;28;20414;-16
2022/04/08 07:57:18;;;;;;;0.63;0.22;;;17.00;60.30;;;;;;4995546;28;20384;-16
2022/04/08 07:59:44;;;;;;;0.77;0.20;;;17.00;60.60;;;;;;4993390;28;20427;-15
2022/04/08 08:02:10;;;;;;;0.73;0.20;;;16.90;60.60;;;;;;4992970;28;20074;-16
2022/04/08 08:04:36;;;;;;;0.28;0.22;;;17.00;60.50;;;;;;4994074;28;20554;-15
2022/04/08 08:07:02;;;;;;;0.50;0.30;;;17.00;61.10;;;;;;4993237;28;20046;-15
2022/04/08 08:09:27;;;;;;;0.28;0.28;;;17.00;60.30;;;;;;4995015;28;20053;-15
2022/04/08 08:11:53;;;;;;;0.10;0.10;;;16.90;60.20;;;;;;4994609;28;20113;-16
2022/04/08 08:14:19;;;;;;;0.32;0.20;;;16.90;60.20;;;;;;4994141;28;20050;-13
2022/04/08 08:16:44;;;;;;;0.73;0.30;;;16.90;60.30;;;;;;4993628;28;20045;-14
2022/04/08 08:19:10;;;;;;;1.55;0.20;;;16.90;60.50;;;;;;4992209;28;20133;-13
2022/04/08 08:21:35;;;;;;;0.30;0.20;;;16.80;60.60;;;;;;5001422;28;20072;-14
2022/04/08 08:24:01;;;;;;;0.40;0.30;;;16.80;60.60;;;;;;4983904;28;20375;-13
2022/04/08 08:26:26;;;;;;;0.63;0.20;;;16.80;60.80;;;;;;4995101;28;20138;-12
2022/04/08 08:28:53;;;;;;;0.20;0.20;;;16.80;60.90;;;;;;4989301;28;20129;-12
2022/04/08 08:31:18;;;;;;;0.28;0.20;;;16.90;60.60;;;;;;4995194;28;20404;-13
2022/04/08 08:33:44;;;;;;;1.95;0.20;;;17.00;60.30;;;;;;4994625;28;20034;-13
2022/04/08 08:36:09;;;;;;;0.93;0.30;;;16.90;60.40;;;;;;4994129;28;20055;-13
2022/04/08 08:38:35;;;;;;;0.10;0.10;;;16.80;60.70;;;;;;4993217;28;20050;-12
2022/04/08 08:41:01;;;;;;;0.20;0.20;;;16.80;60.90;;;;;;4995091;28;20045;-14
2022/04/08 08:43:27;;;;;;;0.10;0.10;;;16.80;60.90;;;;;;4994521;28;20073;-13
2022/04/08 08:45:52;;;;;;;0.17;0.13;;;16.70;61.00;;;;;;4993147;28;20045;-13
2022/04/08 08:48:18;;;;;;;0.28;0.20;;;16.80;61.00;;;;;;4993346;28;20062;-12
2022/04/08 08:50:47;;;;;;;0.25;0.13;;;16.80;60.90;;;;;;4993222;28;20030;-13
2022/04/08 08:53:17;;;;;;;0.30;0.15;;;16.80;60.70;;;;;;4993945;28;20410;-13
2022/04/08 08:55:43;;;;;;;0.10;0.10;;;16.90;60.70;;;;;;4989448;28;20046;-13
2022/04/08 08:58:09;;;;;;;0.30;0.22;;;17.00;60.20;;;;;;4996582;28;20050;-12
2022/04/08 09:00:36;;;;;;;1.65;0.30;;;17.00;60.40;;;;;;4997349;28;20101;-12
2022/04/08 09:03:05;;;;;;;0.57;0.30;;;16.80;60.70;;;;;;4998298;28;20046;-13
2022/04/08 09:05:38;;;;;;;0.15;0.10;;;16.80;60.90;;;;;;4983394;28;20050;-12
2022/04/08 09:08:05;;;;;;;0.30;0.20;;;16.80;60.90;;;;;;4978548;28;20053;-14
2022/04/08 09:10:35;;;;;;;0.17;0.17;;;16.80;61.00;;;;;;4991840;28;20641;-13
2022/04/08 09:13:01;;;;;;;0.50;0.10;;;16.80;60.90;;;;;;4995404;28;20825;-13
2022/04/08 09:15:27;;;;;;;0.20;0.15;;;16.80;60.90;;;;;;4993613;28;20042;-13
2022/04/08 09:17:53;;;;;;;0.55;0.20;;;16.90;60.90;;;;;;4998006;28;20049;-13
2022/04/08 09:20:19;;;;;;;0.32;0.20;;;16.90;60.90;;;;;;4997598;28;20125;-14
2022/04/08 09:22:55;;;;;;;0.20;0.20;;;17.00;60.50;;;;;;4997522;28;20184;-13
2022/04/08 09:25:24;;;;;;;0.00;0.00;;;17.00;60.20;;;;;;4978732;28;20043;-13
2022/04/08 09:27:50;;;;;;;0.25;0.25;;;17.10;60.10;;;;;;4981142;28;20042;-14
2022/04/08 09:30:19;;;;;;;1.45;0.10;;;17.10;60.00;;;;;;4998361;28;20038;-13
2022/04/08 09:32:44;;;;;;;0.75;0.20;;;17.10;60.50;;;;;;4997751;28;20499;-13
2022/04/08 09:35:24;;;;;;;0.10;0.10;;;17.10;60.40;;;;;;4995702;28;20070;-12
2022/04/08 09:37:58;;;;;;;0.10;0.10;;;17.10;62.20;;;;;;4997540;28;20042;-13
2022/04/08 09:40:24;;;;;;;0.08;0.08;;;17.00;61.20;;;;;;4998133;28;20043;-14
2022/04/08 09:42:49;;;;;;;0.10;0.10;;;17.10;60.70;;;;;;4996132;28;20042;-13
2022/04/08 09:45:25;;;;;;;0.20;0.10;;;17.00;60.70;;;;;;4997465;28;20030;-13
2022/04/08 09:47:50;;;;;;;0.20;0.20;;;17.00;61.30;;;;;;4991464;28;20317;-14
2022/04/08 09:50:16;;;;;;;0.75;0.20;;;17.00;61.00;;;;;;4997447;28;20288;-14
2022/04/08 09:52:41;;;;;;;0.20;0.20;;;17.00;61.00;;;;;;4981593;28;20069;-12
2022/04/08 09:55:08;;;;;;;0.20;0.20;;;17.00;61.30;;;;;;4974906;28;20130;-13
2022/04/08 09:57:38;;;;;;;0.10;0.10;;;17.00;61.40;;;;;;4997649;28;20035;-13
2022/04/08 10:00:04;;;;;;;0.20;0.20;;;17.00;61.70;;;;;;4997432;28;20138;-13
2022/04/08 10:02:30;;;;;;;0.22;0.22;;;17.00;61.70;;;;;;4995228;28;20043;-13
2022/04/08 10:04:55;;;;;;;0.30;0.20;;;16.90;61.60;;;;;;4994263;28;20078;-13
2022/04/08 10:07:21;;;;;;;0.20;0.20;;;16.90;61.60;;;;;;4996945;28;20053;-12
2022/04/08 10:09:50;;;;;;;0.32;0.20;;;16.90;61.60;;;;;;4995781;28;20042;-13
2022/04/08 10:12:22;;;;;;;0.30;0.10;;;16.90;61.60;;;;;;4992124;28;20061;-13
2022/04/08 10:15:05;;;;;;;0.20;0.20;;;16.90;61.80;;;;;;5005347;28;20097;-13
2022/04/08 10:17:31;;;;;;;0.10;0.10;;;17.00;61.80;;;;;;4995906;28;20042;-13
2022/04/08 10:20:19;;;;;;;0.38;0.30;;;17.00;61.80;;;;;;4996564;28;20038;-12
2022/04/08 10:22:45;;;;;;;0.20;0.10;;;16.90;61.70;;;;;;4995507;28;20427;-13
2022/04/08 10:25:17;;;;;;;0.30;0.10;;;17.00;61.70;;;;;;4997376;28;20137;-13
2022/04/08 10:27:44;;;;;;;1.00;0.40;;;17.00;61.90;;;;;;4991652;28;20428;-12
2022/04/08 10:30:23;;;;;;;0.35;0.20;;;17.00;62.40;;;;;;4976539;28;20039;-13
2022/04/08 10:32:59;;;;;;;0.30;0.15;;;17.00;61.70;;;;;;4993186;28;20092;-12
2022/04/08 10:35:24;;;;;;;1.20;0.30;;;17.00;61.60;;;;;;4995108;28;20050;-13
2022/04/08 10:37:59;;;;;;;0.20;0.13;;;17.00;62.40;;;;;;4991474;28;20039;-12
2022/04/08 10:40:39;;;;;;;0.40;0.30;;;17.00;62.50;;;;;;4984678;28;20078;-13
2022/04/08 10:43:09;;;;;;;1.95;0.30;;;17.00;62.50;;;;;;4996186;28;20038;-13
2022/04/08 10:45:36;;;;;;;0.28;0.25;;;17.10;62.50;;;;;;4996816;28;20053;-12
2022/04/08 10:48:12;;;;;;;0.32;0.20;;;17.10;62.10;;;;;;4982088;28;20050;-13
2022/04/08 10:50:38;;;;;;;0.68;0.30;;;17.10;62.20;;;;;;4985257;28;20408;-13
2022/04/08 10:53:07;;;;;;;0.65;0.22;;;17.10;62.10;;;;;;4995274;28;20411;-13
2022/04/08 10:55:45;;;;;;;0.40;0.25;;;17.20;62.00;;;;;;4995925;28;20095;-13
2022/04/08 10:58:11;;;;;;;0.55;0.20;;;17.20;61.80;;;;;;4994552;28;20046;-12
2022/04/08 11:00:38;;;;;;;0.20;0.20;;;17.20;61.70;;;;;;4996099;28;20053;-12
2022/04/08 11:03:04;;;;;;;0.30;0.20;;;17.20;61.70;;;;;;4991752;28;20102;-13
2022/04/08 11:05:35;;;;;;;0.30;0.20;;;17.30;61.70;;;;;;4991771;28;20081;-12
2022/04/08 11:08:01;;;;;;;0.75;0.30;;;17.20;61.30;;;;;;4993706;28;20050;-13
2022/04/08 11:10:27;;;;;;;0.28;0.10;;;17.30;61.30;;;;;;4996383;28;20039;-13
2022/04/08 11:12:53;;;;;;;0.40;0.30;;;17.30;61.10;;;;;;4995743;28;20044;-13
2022/04/08 11:15:25;;;;;;;0.30;0.30;;;17.30;61.10;;;;;;4996214;28;20567;-14
2022/04/08 11:17:51;;;;;;;0.70;0.30;;;17.30;61.30;;;;;;4982661;28;20097;-14
2022/04/08 11:20:18;;;;;;;1.75;0.28;;;17.30;62.10;;;;;;4995872;28;20098;-13
2022/04/08 11:22:45;;;;;;;0.73;0.30;;;17.30;61.10;;;;;;4995387;28;20079;-13
2022/04/08 11:25:20;;;;;;;0.68;0.50;;;17.30;61.20;;;;;;4995746;28;20077;-13
2022/04/08 11:28:01;;;;;;;0.22;0.15;;;17.30;61.20;;;;;;4994145;28;20564;-14
2022/04/08 11:30:26;;;;;;;0.50;0.32;;;17.30;61.00;;;;;;4995999;28;20560;-12
2022/04/08 11:32:52;;;;;;;0.43;0.22;;;17.30;60.90;;;;;;4983349;28;20483;-13
2022/04/08 11:35:18;;;;;;;0.55;0.20;;;17.40;60.90;;;;;;4983760;28;20084;-13
2022/04/08 11:37:44;;;;;;;0.30;0.30;;;17.30;61.00;;;;;;4995794;28;20042;-13
2022/04/08 11:40:15;;;;;;;1.75;0.30;;;17.40;60.80;;;;;;4995264;28;20419;-13
2022/04/08 11:42:41;;;;;;;0.60;0.40;;;17.40;60.70;;;;;;4988024;28;20046;-13
2022/04/08 11:45:09;;;;;;;0.90;0.25;;;17.40;60.70;;;;;;4993467;28;20057;-13
2022/04/08 11:47:36;;;;;;;0.70;0.20;;;17.40;60.70;;;;;;4994363;28;20391;-13
2022/04/08 11:50:06;;;;;;;0.80;0.50;;;17.40;60.60;;;;;;4995123;28;20137;-13
2022/04/08 11:52:32;;;;;;;0.45;0.30;;;17.40;60.70;;;;;;4995287;28;20165;-13
2022/04/08 11:55:04;;;;;;;0.82;0.60;;;17.40;61.20;;;;;;4995427;28;20050;-13
2022/04/08 11:57:31;;;;;;;0.30;0.30;;;17.40;61.10;;;;;;4995050;28;20038;-14
2022/04/08 11:59:57;;;;;;;0.65;0.40;;;17.40;60.90;;;;;;4994704;28;20056;-13
2022/04/08 12:02:23;;;;;;;0.68;0.47;;;17.40;60.90;;;;;;4995584;28;20054;-13
2022/04/08 12:04:50;;;;;;;0.40;0.22;;;17.40;61.40;;;;;;4993843;28;20134;-14
2022/04/08 12:07:23;;;;;;;0.50;0.40;;;17.40;61.50;;;;;;4979040;28;20077;-14
2022/04/08 12:09:50;;;;;;;0.80;0.30;;;17.40;61.40;;;;;;4982514;28;20046;-13
2022/04/08 12:12:22;;;;;;;0.52;0.45;;;17.30;61.40;;;;;;4993687;28;20460;-14
2022/04/08 12:14:48;;;;;;;0.32;0.30;;;17.30;61.50;;;;;;4995275;28;20085;-15
2022/04/08 12:17:13;;;;;;;0.38;0.20;;;17.40;61.50;;;;;;4995078;28;20050;-13
2022/04/08 12:19:40;;;;;;;1.02;0.40;;;17.40;61.50;;;;;;4995239;28;20415;-14
2022/04/08 12:22:13;;;;;;;0.43;0.32;;;17.40;61.60;;;;;;4994151;28;20081;-15
2022/04/08 12:24:42;;;;;;;0.93;0.60;;;17.40;61.50;;;;;;4995612;28;20046;-12
2022/04/08 12:27:22;;;;;;;0.50;0.30;;;17.40;61.70;;;;;;4995220;28;20475;-14
2022/04/08 12:30:01;;;;;;;0.98;0.20;;;17.40;61.80;;;;;;4995961;28;20407;-14
2022/04/08 12:32:38;;;;;;;0.40;0.20;;;17.40;61.60;;;;;;4998789;28;20050;-13
2022/04/08 12:35:08;;;;;;;0.28;0.20;;;17.40;61.60;;;;;;4998808;28;20046;-14
2022/04/08 12:37:37;;;;;;;0.85;0.60;;;17.40;61.80;;;;;;4996607;28;20141;-14
2022/04/08 12:40:04;;;;;;;0.65;0.40;;;17.40;61.60;;;;;;4998612;28;20112;-13
2022/04/08 12:42:33;;;;;;;0.90;0.50;;;17.40;62.50;;;;;;4998934;28;20049;-13